createdAt,value
2019-03-04T00:01:27.803Z,86.60
2019-03-04T00:03:56.333Z,86.90
2019-03-04T00:06:24.869Z,87.00
2019-03-04T00:08:53.339Z,86.50
2019-03-04T00:11:21.924Z,86.40
2019-03-04T00:13:50.455Z,86.20
2019-03-04T00:16:18.998Z,86.20
2019-03-04T00:18:47.649Z,85.10
2019-03-04T00:21:16.198Z,85.30
2019-03-04T00:23:44.769Z,85.50
2019-03-04T00:26:13.325Z,85.10
2019-03-04T00:28:41.863Z,84.70
2019-03-04T00:31:10.633Z,84.80
2019-03-04T00:33:39.165Z,84.50
2019-03-04T00:36:07.633Z,84.50
2019-03-04T00:38:36.221Z,84.50
2019-03-04T00:41:04.689Z,84.80
2019-03-04T00:43:33.153Z,84.30
2019-03-04T00:46:01.646Z,84.90
2019-03-04T00:48:30.189Z,84.50
2019-03-04T00:50:58.735Z,84.30
2019-03-04T00:53:27.232Z,84.00
2019-03-04T00:55:55.761Z,84.20
2019-03-04T00:58:24.259Z,84.30
2019-03-04T01:00:52.822Z,84.00
2019-03-04T01:03:21.334Z,84.00
2019-03-04T01:05:49.792Z,83.70
2019-03-04T01:08:18.257Z,84.10
2019-03-04T01:10:46.827Z,83.80
2019-03-04T01:13:15.397Z,84.30
2019-03-04T01:15:43.934Z,84.00
2019-03-04T01:18:12.525Z,83.80
2019-03-04T01:20:41.061Z,84.10
2019-03-04T01:23:09.536Z,84.70
2019-03-04T01:25:38.345Z,83.90
2019-03-04T01:28:06.806Z,84.10
2019-03-04T01:30:35.271Z,84.10
2019-03-04T01:33:03.851Z,84.20
2019-03-04T01:35:32.381Z,83.60
2019-03-04T01:38:00.950Z,83.40
2019-03-04T01:40:29.410Z,83.40
2019-03-04T01:42:57.932Z,83.50
2019-03-04T01:45:26.394Z,82.80
2019-03-04T01:47:54.861Z,83.30
2019-03-04T01:50:23.460Z,83.40
2019-03-04T01:52:51.994Z,83.00
2019-03-04T01:55:20.458Z,83.50
2019-03-04T01:57:49.026Z,83.70
2019-03-04T02:00:23.769Z,82.50
2019-03-04T02:02:52.333Z,83.10
2019-03-04T02:05:20.941Z,83.10
2019-03-04T02:07:49.402Z,83.40
2019-03-04T02:10:20.862Z,83.30
2019-03-04T02:12:49.825Z,83.30
2019-03-04T02:15:19.924Z,83.90
2019-03-04T02:17:48.687Z,83.30
2019-03-04T02:20:18.661Z,84.00
2019-03-04T02:22:47.376Z,83.70
2019-03-04T02:25:37.521Z,83.30
2019-03-04T02:28:05.990Z,84.00
2019-03-04T02:30:34.576Z,84.00
2019-03-04T02:33:03.118Z,83.50
2019-03-04T02:35:31.577Z,83.70
2019-03-04T02:38:00.145Z,83.60
2019-03-04T02:40:28.602Z,83.60
2019-03-04T02:42:57.170Z,83.70
2019-03-04T02:45:25.709Z,83.40
2019-03-04T02:47:54.279Z,83.50
2019-03-04T02:50:22.805Z,83.40
2019-03-04T02:52:51.333Z,83.50
2019-03-04T02:55:19.870Z,83.90
2019-03-04T02:57:48.401Z,83.60
2019-03-04T03:00:21.478Z,83.80
2019-03-04T03:02:50.429Z,84.30
2019-03-04T03:05:18.893Z,84.10
2019-03-04T03:07:47.467Z,83.80
2019-03-04T03:10:16.004Z,83.70
2019-03-04T03:12:44.566Z,83.50
2019-03-04T03:15:15.220Z,83.70
2019-03-04T03:17:43.758Z,83.50
2019-03-04T03:20:16.138Z,83.70
2019-03-04T03:22:44.818Z,84.00
2019-03-04T03:25:14.591Z,84.40
2019-03-04T03:27:44.183Z,84.40
2019-03-04T03:30:20.472Z,84.40
2019-03-04T03:32:49.041Z,84.70
2019-03-04T03:35:17.576Z,84.80
2019-03-04T03:37:46.114Z,85.30
2019-03-04T03:40:17.217Z,85.50
2019-03-04T03:42:45.760Z,85.40
2019-03-04T03:45:15.038Z,85.50
2019-03-04T03:47:43.628Z,85.40
2019-03-04T03:50:14.648Z,85.70
2019-03-04T03:52:43.210Z,85.90
2019-03-04T03:55:13.163Z,86.00
2019-03-04T03:57:41.695Z,86.30
2019-03-04T04:00:24.302Z,86.40
2019-03-04T04:02:52.857Z,86.40
2019-03-04T04:05:21.448Z,86.80
2019-03-04T04:07:49.977Z,86.50
2019-03-04T04:10:21.912Z,86.10
2019-03-04T04:12:50.578Z,85.90
2019-03-04T04:15:20.873Z,85.90
2019-03-04T04:17:49.409Z,86.10
2019-03-04T04:20:17.969Z,85.70
2019-03-04T04:22:46.505Z,85.60
2019-03-04T04:25:15.429Z,86.20
2019-03-04T04:27:43.886Z,85.40
2019-03-04T04:30:18.506Z,85.30
2019-03-04T04:32:47.047Z,85.10
2019-03-04T04:35:15.606Z,85.10
2019-03-04T04:37:44.184Z,85.70
2019-03-04T04:40:14.452Z,85.00
2019-03-04T04:42:42.989Z,85.10
2019-03-04T04:45:11.955Z,85.30
2019-03-04T04:47:42.384Z,85.20
2019-03-04T04:50:15.861Z,85.20
2019-03-04T04:52:44.437Z,85.50
2019-03-04T04:55:12.903Z,85.30
2019-03-04T04:57:41.436Z,85.00
2019-03-04T05:00:13.109Z,85.40
2019-03-04T05:02:41.642Z,84.80
2019-03-04T05:05:10.220Z,84.80
2019-03-04T05:07:38.760Z,84.50
2019-03-04T05:10:13.453Z,84.80
2019-03-04T05:12:41.989Z,84.70
2019-03-04T05:15:12.574Z,84.90
2019-03-04T05:17:41.303Z,84.40
2019-03-04T05:20:24.442Z,84.30
2019-03-04T05:22:53.234Z,84.50
2019-03-04T05:25:21.764Z,84.10
2019-03-04T05:27:50.309Z,84.20
2019-03-04T05:30:20.225Z,84.40
2019-03-04T05:32:48.695Z,84.40
2019-03-04T05:35:17.227Z,84.30
2019-03-04T05:37:45.801Z,84.30
2019-03-04T05:40:21.426Z,85.60
2019-03-04T05:42:49.985Z,86.40
2019-03-04T05:45:19.190Z,86.60
2019-03-04T05:47:47.782Z,86.50
2019-03-04T05:50:18.813Z,87.50
2019-03-04T05:52:47.279Z,87.10
2019-03-04T05:55:16.185Z,87.60
2019-03-04T05:57:44.646Z,87.10
2019-03-04T06:00:21.398Z,87.40
2019-03-04T06:02:51.576Z,87.40
2019-03-04T06:05:20.112Z,87.20
2019-03-04T06:07:56.453Z,88.10
2019-03-04T06:10:24.918Z,88.40
2019-03-04T06:12:53.449Z,89.20
2019-03-04T06:15:22.117Z,90.20
2019-03-04T06:17:50.581Z,90.30
2019-03-04T06:20:20.054Z,90.60
2019-03-04T06:22:48.748Z,90.70
2019-03-04T06:25:20.046Z,90.70
2019-03-04T06:27:48.566Z,90.80
2019-03-04T06:30:19.745Z,90.70
2019-03-04T06:32:48.273Z,90.70
2019-03-04T06:35:16.790Z,90.80
2019-03-04T06:37:45.328Z,90.60
2019-03-04T06:40:16.027Z,90.70
2019-03-04T06:42:44.590Z,90.70
2019-03-04T06:45:14.865Z,90.60
2019-03-04T06:47:43.630Z,90.70
2019-03-04T06:50:49.315Z,90.80
2019-03-04T06:53:33.466Z,90.70
2019-03-04T06:56:13.878Z,91.00
2019-03-04T06:59:06.281Z,90.70
2019-03-04T07:01:46.954Z,90.60
2019-03-04T07:04:24.200Z,90.50
2019-03-04T07:06:52.735Z,90.60
2019-03-04T07:09:21.323Z,90.50
2019-03-04T07:11:50.756Z,90.50
2019-03-04T07:14:19.290Z,90.60
2019-03-04T07:16:48.026Z,90.80
2019-03-04T07:19:17.508Z,90.80
2019-03-04T07:21:46.065Z,90.60
2019-03-04T07:24:14.534Z,90.50
2019-03-04T07:26:43.129Z,90.50
2019-03-04T07:29:11.589Z,90.60
2019-03-04T07:31:40.052Z,90.80
2019-03-04T07:34:08.629Z,90.20
2019-03-04T07:36:37.093Z,90.30
2019-03-04T07:39:07.737Z,90.00
2019-03-04T07:41:36.443Z,90.00
2019-03-04T07:44:05.146Z,89.70
2019-03-04T07:46:33.701Z,89.30
2019-03-04T07:49:02.160Z,88.60
2019-03-04T07:51:30.845Z,88.90
2019-03-04T07:53:59.412Z,88.60
2019-03-04T07:56:27.946Z,88.80
2019-03-04T07:58:56.418Z,88.00
2019-03-04T08:01:25.216Z,87.40
2019-03-04T08:03:53.754Z,87.80
2019-03-04T08:06:22.298Z,87.40
2019-03-04T08:09:20.570Z,86.60
2019-03-04T08:12:08.881Z,86.40
2019-03-04T08:14:37.427Z,86.20
2019-03-04T08:17:05.945Z,85.70
2019-03-04T08:19:34.497Z,86.00
2019-03-04T08:22:03.114Z,86.50
2019-03-04T08:24:31.649Z,86.20
2019-03-04T08:27:00.310Z,86.10
2019-03-04T08:29:28.782Z,86.00
2019-03-04T08:31:57.313Z,85.30
2019-03-04T08:34:31.096Z,85.10
2019-03-04T08:36:55.997Z,84.20
2019-03-04T08:39:24.587Z,83.40
2019-03-04T08:41:53.122Z,84.80
2019-03-04T08:44:21.656Z,85.20
2019-03-04T08:46:50.233Z,85.70
2019-03-04T08:49:18.694Z,84.60
2019-03-04T08:51:47.164Z,84.00
2019-03-04T08:54:15.777Z,83.40
2019-03-04T08:56:44.322Z,82.50
2019-03-04T08:59:12.861Z,83.20
2019-03-04T09:01:41.465Z,82.20
2019-03-04T09:04:09.999Z,81.40
2019-03-04T09:06:38.529Z,80.90
2019-03-04T09:09:07.970Z,80.80
2019-03-04T09:11:36.506Z,81.00
2019-03-04T09:14:05.212Z,80.50
2019-03-04T09:16:33.917Z,80.10
2019-03-04T09:19:02.458Z,80.00
2019-03-04T09:21:30.925Z,79.00
2019-03-04T09:23:59.496Z,78.50
2019-03-04T09:26:28.030Z,77.20
2019-03-04T09:28:56.629Z,77.30
2019-03-04T09:31:25.089Z,76.80
2019-03-04T09:33:53.563Z,76.10
2019-03-04T09:36:22.129Z,75.70
2019-03-04T09:38:50.595Z,75.10
2019-03-04T09:41:19.161Z,74.90
2019-03-04T09:43:47.621Z,75.50
2019-03-04T09:46:16.193Z,75.50
2019-03-04T09:48:44.712Z,75.10
2019-03-04T09:51:13.195Z,76.10
2019-03-04T09:53:43.136Z,75.80
2019-03-04T09:56:11.842Z,75.30
2019-03-04T09:58:40.406Z,75.80
2019-03-04T10:01:17.873Z,75.40
2019-03-04T10:04:01.625Z,75.10
2019-03-04T10:06:44.968Z,75.80
2019-03-04T10:09:27.940Z,76.60
2019-03-04T10:11:59.629Z,76.30
2019-03-04T10:14:52.894Z,77.00
2019-03-04T10:17:39.720Z,76.10
2019-03-04T10:20:20.129Z,76.20
2019-03-04T10:22:49.438Z,76.10
2019-03-04T10:25:23.822Z,76.50
2019-03-04T10:28:16.357Z,76.20
2019-03-04T10:31:22.721Z,75.90
2019-03-04T10:34:13.634Z,75.30
2019-03-04T10:36:57.213Z,74.80
2019-03-04T10:39:43.838Z,74.50
2019-03-04T10:42:21.130Z,73.90
2019-03-04T10:45:07.892Z,72.50
2019-03-04T10:47:36.466Z,71.50
2019-03-04T10:50:08.447Z,70.60
2019-03-04T10:52:36.993Z,71.10
2019-03-04T10:55:08.998Z,70.10
2019-03-04T10:57:37.542Z,67.90
2019-03-04T11:00:14.743Z,65.70
2019-03-04T11:02:43.267Z,65.30
2019-03-04T11:05:11.806Z,63.10
2019-03-04T11:07:40.381Z,63.00
2019-03-04T11:10:11.394Z,57.90
2019-03-04T11:12:39.998Z,57.20
2019-03-04T11:15:25.841Z,56.00
2019-03-04T11:17:54.671Z,56.40
2019-03-04T11:20:23.481Z,55.90
2019-03-04T11:22:52.022Z,55.50
2019-03-04T11:25:20.662Z,55.60
2019-03-04T11:27:49.469Z,55.80
2019-03-04T11:30:29.687Z,56.10
2019-03-04T11:32:58.181Z,54.40
2019-03-04T11:35:26.718Z,53.40
2019-03-04T11:37:55.217Z,51.40
2019-03-04T11:40:28.639Z,51.60
2019-03-04T11:42:57.574Z,51.10
2019-03-04T11:45:26.179Z,51.80
2019-03-04T11:47:54.790Z,51.30
2019-03-04T11:50:23.390Z,51.40
2019-03-04T11:52:51.922Z,54.60
2019-03-04T11:55:23.725Z,61.00
2019-03-04T11:57:52.216Z,66.40
2019-03-04T12:00:24.464Z,70.50
2019-03-04T12:02:53.050Z,74.80
2019-03-04T12:05:21.583Z,76.60
2019-03-04T12:07:50.041Z,78.60
2019-03-04T12:10:18.796Z,80.30
2019-03-04T12:12:47.326Z,79.60
2019-03-04T12:15:21.917Z,81.80
2019-03-04T12:17:50.744Z,81.00
2019-03-04T12:20:22.441Z,82.60
2019-03-04T12:22:50.928Z,81.30
2019-03-04T12:25:20.558Z,81.40
2019-03-04T12:27:49.017Z,81.80
2019-03-04T12:30:19.615Z,81.20
2019-03-04T12:32:48.217Z,79.20
2019-03-04T12:35:17.129Z,78.30
2019-03-04T12:37:45.871Z,78.30
2019-03-04T12:40:19.609Z,77.70
2019-03-04T12:42:48.239Z,78.30
2019-03-04T12:45:18.787Z,77.10
2019-03-04T12:47:46.667Z,76.60
2019-03-04T12:50:21.347Z,75.80
2019-03-04T12:52:49.883Z,74.40
2019-03-04T12:55:18.497Z,74.50
2019-03-04T12:57:47.033Z,74.70
2019-03-04T13:00:29.953Z,73.90
2019-03-04T13:02:59.024Z,74.50
2019-03-04T13:05:27.569Z,72.90
2019-03-04T13:07:56.157Z,70.40
2019-03-04T13:10:25.286Z,68.80
2019-03-04T13:12:53.889Z,65.30
2019-03-04T13:15:26.799Z,66.50
2019-03-04T13:17:55.338Z,63.90
2019-03-04T13:20:28.279Z,65.50
2019-03-04T13:22:56.886Z,65.10
2019-03-04T13:25:25.423Z,65.10
2019-03-04T13:27:54.553Z,63.20
2019-03-04T13:30:39.953Z,63.60
2019-03-04T13:33:09.434Z,62.00
2019-03-04T13:35:40.006Z,62.30
2019-03-04T13:38:07.762Z,62.10
2019-03-04T13:40:36.285Z,62.40
2019-03-04T13:43:04.994Z,62.40
2019-03-04T13:45:33.538Z,60.50
2019-03-04T13:48:02.100Z,59.60
2019-03-04T13:50:36.031Z,59.30
2019-03-04T13:53:05.180Z,57.50
2019-03-04T13:55:33.713Z,56.80
2019-03-04T13:58:02.704Z,56.00
2019-03-04T14:00:32.968Z,55.40
2019-03-04T14:03:01.503Z,52.40
2019-03-04T14:05:30.045Z,52.60
2019-03-04T14:07:58.801Z,52.90
2019-03-04T14:10:30.411Z,52.90
2019-03-04T14:12:58.868Z,51.60
2019-03-04T14:15:33.237Z,52.40
2019-03-04T14:18:01.715Z,51.50
2019-03-04T14:20:30.502Z,51.90
2019-03-04T14:22:58.997Z,52.10
2019-03-04T14:25:27.456Z,51.10
2019-03-04T14:27:55.929Z,51.00
2019-03-04T14:30:24.965Z,52.20
2019-03-04T14:32:53.505Z,51.20
2019-03-04T14:35:22.047Z,50.80
2019-03-04T14:37:50.634Z,52.10
2019-03-04T14:40:22.693Z,51.90
2019-03-04T14:42:51.237Z,51.20
2019-03-04T14:45:27.801Z,51.50
2019-03-04T14:47:56.339Z,50.80
2019-03-04T14:50:24.878Z,51.80
2019-03-04T14:52:53.411Z,51.30
2019-03-04T14:55:30.176Z,52.00
2019-03-04T14:57:58.777Z,51.20
2019-03-04T15:00:42.817Z,52.00
2019-03-04T15:03:20.600Z,50.50
2019-03-04T15:05:41.807Z,51.20
2019-03-04T15:08:10.346Z,51.50
2019-03-04T15:10:38.912Z,50.90
2019-03-04T15:13:09.794Z,51.60
2019-03-04T15:15:37.905Z,51.70
2019-03-04T15:18:06.453Z,51.90
2019-03-04T15:20:35.437Z,52.30
2019-03-04T15:23:04.230Z,52.60
2019-03-04T15:25:34.407Z,52.10
2019-03-04T15:28:11.235Z,51.90
2019-03-04T15:30:40.178Z,51.70
2019-03-04T15:33:17.521Z,51.10
2019-03-04T15:35:38.975Z,49.70
2019-03-04T15:38:07.615Z,49.50
2019-03-04T15:40:36.145Z,49.60
2019-03-04T15:43:04.692Z,49.60
2019-03-04T15:45:33.699Z,49.90
2019-03-04T15:48:02.341Z,49.40
2019-03-04T15:50:30.873Z,50.10
2019-03-04T15:52:59.485Z,50.50
2019-03-04T15:55:28.021Z,50.60
2019-03-04T15:57:56.577Z,51.00
2019-03-04T16:00:25.382Z,50.70
2019-03-04T16:02:54.735Z,50.30
2019-03-04T16:05:23.288Z,49.90
2019-03-04T16:07:51.831Z,49.50
2019-03-04T16:10:29.724Z,48.70
2019-03-04T16:12:58.193Z,48.80
2019-03-04T16:15:26.729Z,48.40
2019-03-04T16:17:55.325Z,49.10
2019-03-04T16:20:24.135Z,49.00
2019-03-04T16:22:56.009Z,49.10
2019-03-04T16:25:24.886Z,49.20
2019-03-04T16:28:05.388Z,49.50
2019-03-04T16:30:33.137Z,50.10
2019-03-04T16:33:01.710Z,52.30
2019-03-04T16:35:30.294Z,65.50
2019-03-04T16:37:58.801Z,78.90
2019-03-04T16:40:27.330Z,83.30
2019-03-04T16:42:55.790Z,86.80
2019-03-04T16:45:25.325Z,88.00
2019-03-04T16:47:53.885Z,88.80
2019-03-04T16:50:36.953Z,89.50
2019-03-04T16:53:14.472Z,90.50
2019-03-04T16:55:43.171Z,90.50
2019-03-04T16:58:11.693Z,90.60
2019-03-04T17:00:41.006Z,91.10
2019-03-04T17:03:09.563Z,91.00
2019-03-04T17:05:38.106Z,90.80
2019-03-04T17:08:06.950Z,90.70
2019-03-04T17:10:35.633Z,90.70
2019-03-04T17:13:04.167Z,91.00
2019-03-04T17:15:32.709Z,91.00
2019-03-04T17:18:01.206Z,91.10
2019-03-04T17:20:30.185Z,90.90
2019-03-04T17:22:58.726Z,91.00
2019-03-04T17:25:27.449Z,90.10
2019-03-04T17:27:56.023Z,90.50
2019-03-04T17:30:26.073Z,90.60
2019-03-04T17:32:55.034Z,90.00
2019-03-04T17:35:24.410Z,90.20
2019-03-04T17:37:53.009Z,89.20
2019-03-04T17:40:26.949Z,90.40
2019-03-04T17:42:55.557Z,89.70
2019-03-04T17:45:25.430Z,89.20
2019-03-04T17:47:54.050Z,90.00
2019-03-04T17:50:34.570Z,90.10
2019-03-04T17:53:03.433Z,90.10
2019-03-04T17:55:32.065Z,89.80
2019-03-04T17:58:00.601Z,89.90
2019-03-04T18:00:29.620Z,89.30
2019-03-04T18:02:58.153Z,89.10
2019-03-04T18:05:26.650Z,88.90
2019-03-04T18:07:55.230Z,88.90
2019-03-04T18:10:24.466Z,88.60
2019-03-04T18:12:56.005Z,88.20
2019-03-04T18:15:36.002Z,88.30
2019-03-04T18:18:05.046Z,88.10
2019-03-04T18:20:34.744Z,87.70
2019-03-04T18:23:03.425Z,88.00
2019-03-04T18:25:46.989Z,87.60
2019-03-04T18:28:44.341Z,87.40
2019-03-04T18:31:35.293Z,87.20
2019-03-04T18:34:37.179Z,86.80
2019-03-04T18:37:23.982Z,86.60
2019-03-04T18:40:07.725Z,86.00
2019-03-04T18:42:57.358Z,85.30
2019-03-04T18:45:38.102Z,85.30
2019-03-04T18:48:42.963Z,85.60
2019-03-04T18:51:11.620Z,85.20
2019-03-04T18:53:40.165Z,84.70
2019-03-04T18:56:08.766Z,85.10
2019-03-04T18:58:37.278Z,84.20
2019-03-04T19:01:05.745Z,84.10
2019-03-04T19:03:34.205Z,84.10
2019-03-04T19:06:02.773Z,84.00
2019-03-04T19:08:31.274Z,84.50
2019-03-04T19:10:59.810Z,83.60
2019-03-04T19:13:28.338Z,83.10
2019-03-04T19:15:56.853Z,83.30
2019-03-04T19:18:25.313Z,83.50
2019-03-04T19:20:53.845Z,83.30
2019-03-04T19:23:22.428Z,82.70
2019-03-04T19:25:50.889Z,82.80
2019-03-04T19:28:19.345Z,82.70
2019-03-04T19:30:47.834Z,82.50
2019-03-04T19:33:16.329Z,82.30
2019-03-04T19:35:44.793Z,81.70
2019-03-04T19:38:13.373Z,81.70
2019-03-04T19:40:41.829Z,82.10
2019-03-04T19:43:10.294Z,82.20
2019-03-04T19:45:38.874Z,82.30
2019-03-04T19:48:08.074Z,82.30
2019-03-04T19:50:36.833Z,81.80
2019-03-04T19:53:05.365Z,82.30
2019-03-04T19:55:33.830Z,81.80
2019-03-04T19:58:02.594Z,81.00
2019-03-04T20:00:32.829Z,81.10
2019-03-04T20:03:01.805Z,80.70
2019-03-04T20:05:33.204Z,81.20
2019-03-04T20:08:01.830Z,81.20
2019-03-04T20:10:31.388Z,81.00
2019-03-04T20:12:59.993Z,81.10
2019-03-04T20:15:38.436Z,81.60
2019-03-04T20:18:06.975Z,81.50
2019-03-04T20:20:54.978Z,81.50
2019-03-04T20:23:23.511Z,81.40
2019-03-04T20:25:53.084Z,81.10
2019-03-04T20:28:21.684Z,81.10
2019-03-04T20:30:50.145Z,80.90
2019-03-04T20:33:18.689Z,80.80
2019-03-04T20:35:48.813Z,80.10
2019-03-04T20:38:29.250Z,79.60
2019-03-04T20:40:57.049Z,79.80
2019-03-04T20:43:25.667Z,79.10
2019-03-04T20:45:54.205Z,78.90
2019-03-04T20:48:22.741Z,78.80
2019-03-04T20:50:51.241Z,79.10
2019-03-04T20:53:19.702Z,79.20
2019-03-04T20:55:48.284Z,79.00
2019-03-04T20:58:17.259Z,79.00
2019-03-04T21:00:46.266Z,78.60
2019-03-04T21:03:14.836Z,78.50
2019-03-04T21:05:43.573Z,77.60
2019-03-04T21:08:12.113Z,76.90
2019-03-04T21:10:40.895Z,75.40
2019-03-04T21:13:13.576Z,74.20
2019-03-04T21:15:42.193Z,74.40
2019-03-04T21:18:10.934Z,73.70
2019-03-04T21:20:39.535Z,73.70
2019-03-04T21:23:08.083Z,72.60
2019-03-04T21:25:45.466Z,72.40
2019-03-04T21:28:33.542Z,72.00
2019-03-04T21:31:07.858Z,71.70
2019-03-04T21:33:57.297Z,70.40
2019-03-04T21:36:55.588Z,71.10
2019-03-04T21:39:34.878Z,70.50
2019-03-04T21:42:18.399Z,70.00
2019-03-04T21:45:04.981Z,69.10
2019-03-04T21:47:58.245Z,68.30
2019-03-04T21:50:44.580Z,68.60
2019-03-04T21:53:31.053Z,67.80
2019-03-04T21:56:17.573Z,68.30
2019-03-04T21:58:46.145Z,68.80
2019-03-04T22:01:29.196Z,68.20
2019-03-04T22:03:58.509Z,68.50
2019-03-04T22:06:27.054Z,68.90
2019-03-04T22:08:55.585Z,68.60
2019-03-04T22:11:24.100Z,69.20
2019-03-04T22:13:52.621Z,69.00
2019-03-04T22:16:21.088Z,69.20
2019-03-04T22:18:49.731Z,69.30
2019-03-04T22:21:18.329Z,70.10
2019-03-04T22:23:46.863Z,69.30
2019-03-04T22:26:15.427Z,69.30
2019-03-04T22:28:43.966Z,69.80
2019-03-04T22:31:12.526Z,69.90
2019-03-04T22:33:41.077Z,69.80
2019-03-04T22:36:09.855Z,70.30
2019-03-04T22:38:38.330Z,70.20
2019-03-04T22:41:07.011Z,70.30
2019-03-04T22:43:35.582Z,70.40
2019-03-04T22:46:04.202Z,70.00
2019-03-04T22:48:32.849Z,70.20
2019-03-04T22:51:01.474Z,70.30
2019-03-04T22:53:29.949Z,69.90
2019-03-04T22:55:58.494Z,69.50
2019-03-04T22:58:28.840Z,69.30
2019-03-04T23:01:01.916Z,68.90
2019-03-04T23:03:34.009Z,68.70
2019-03-04T23:06:21.121Z,69.10
2019-03-04T23:08:49.713Z,68.40
2019-03-04T23:11:20.411Z,69.20
2019-03-04T23:14:01.254Z,67.80
2019-03-04T23:16:32.220Z,68.30
2019-03-04T23:19:00.750Z,68.30
2019-03-04T23:21:29.204Z,68.10
2019-03-04T23:23:57.863Z,68.10
2019-03-04T23:26:26.403Z,68.70
2019-03-04T23:28:54.871Z,68.60
2019-03-04T23:31:23.470Z,68.20
2019-03-04T23:33:51.934Z,68.70
2019-03-04T23:36:20.382Z,68.80
2019-03-04T23:38:48.870Z,68.60
2019-03-04T23:41:17.323Z,68.90
2019-03-04T23:43:45.804Z,68.90
2019-03-04T23:46:14.286Z,68.80
2019-03-04T23:48:42.762Z,69.20
2019-03-04T23:51:11.305Z,69.40
2019-03-04T23:53:39.876Z,69.10
2019-03-04T23:56:08.325Z,69.80
2019-03-04T23:58:36.767Z,69.60
